sensor_id;sensor_type;location;lat;lon;timestamp;temperature;humidity
62853;DHT22;49205;44.868;38.140;2022-10-16T00:00:05;11.10;83.80
62853;DHT22;49205;44.868;38.140;2022-10-16T00:02:34;11.00;83.90
62853;DHT22;49205;44.868;38.140;2022-10-16T00:05:03;11.10;83.80
62853;DHT22;49205;44.868;38.140;2022-10-16T00:07:32;11.00;83.50
62853;DHT22;49205;44.868;38.140;2022-10-16T00:10:01;11.00;83.90
62853;DHT22;49205;44.868;38.140;2022-10-16T00:12:31;11.10;84.10
62853;DHT22;49205;44.868;38.140;2022-10-16T00:15:00;11.10;83.20
62853;DHT22;49205;44.868;38.140;2022-10-16T00:17:29;11.00;82.90
62853;DHT22;49205;44.868;38.140;2022-10-16T00:19:59;11.00;82.60
62853;DHT22;49205;44.868;38.140;2022-10-16T00:22:27;11.00;82.10
62853;DHT22;49205;44.868;38.140;2022-10-16T00:24:57;10.90;81.70
62853;DHT22;49205;44.868;38.140;2022-10-16T00:27:26;10.80;81.50
62853;DHT22;49205;44.868;38.140;2022-10-16T00:29:55;10.80;81.70
62853;DHT22;49205;44.868;38.140;2022-10-16T00:32:24;10.70;82.20
62853;DHT22;49205;44.868;38.140;2022-10-16T00:34:53;10.80;82.80
62853;DHT22;49205;44.868;38.140;2022-10-16T00:37:22;10.80;83.20
62853;DHT22;49205;44.868;38.140;2022-10-16T00:39:51;10.90;83.60
62853;DHT22;49205;44.868;38.140;2022-10-16T00:42:20;10.90;83.60
62853;DHT22;49205;44.868;38.140;2022-10-16T00:44:53;10.90;83.00
62853;DHT22;49205;44.868;38.140;2022-10-16T00:47:43;10.90;82.10
62853;DHT22;49205;44.868;38.140;2022-10-16T00:50:22;10.90;82.60
62853;DHT22;49205;44.868;38.140;2022-10-16T00:52:50;10.90;82.70
62853;DHT22;49205;44.868;38.140;2022-10-16T00:55:20;10.90;82.90
62853;DHT22;49205;44.868;38.140;2022-10-16T00:57:50;10.90;83.10
62853;DHT22;49205;44.868;38.140;2022-10-16T01:00:22;10.90;83.20
62853;DHT22;49205;44.868;38.140;2022-10-16T01:02:57;10.90;83.10
62853;DHT22;49205;44.868;38.140;2022-10-16T01:05:33;10.90;82.70
62853;DHT22;49205;44.868;38.140;2022-10-16T01:08:10;10.90;82.30
62853;DHT22;49205;44.868;38.140;2022-10-16T01:10:54;10.80;81.90
62853;DHT22;49205;44.868;38.140;2022-10-16T01:13:32;10.80;81.60
62853;DHT22;49205;44.868;38.140;2022-10-16T01:16:05;10.70;81.80
62853;DHT22;49205;44.868;38.140;2022-10-16T01:21:24;10.70;82.50
62853;DHT22;49205;44.868;38.140;2022-10-16T01:24:24;10.70;82.50
62853;DHT22;49205;44.868;38.140;2022-10-16T01:27:18;10.70;82.50
62853;DHT22;49205;44.868;38.140;2022-10-16T01:29:56;10.70;82.70
62853;DHT22;49205;44.868;38.140;2022-10-16T01:32:45;10.80;83.00
62853;DHT22;49205;44.868;38.140;2022-10-16T01:35:23;10.80;82.30
62853;DHT22;49205;44.868;38.140;2022-10-16T01:38:15;10.80;82.90
62853;DHT22;49205;44.868;38.140;2022-10-16T01:40:46;10.80;82.70
62853;DHT22;49205;44.868;38.140;2022-10-16T01:43:18;10.80;82.30
62853;DHT22;49205;44.868;38.140;2022-10-16T01:45:48;10.80;83.30
62853;DHT22;49205;44.868;38.140;2022-10-16T01:48:21;10.80;82.80
62853;DHT22;49205;44.868;38.140;2022-10-16T01:50:58;10.80;82.50
62853;DHT22;49205;44.868;38.140;2022-10-16T01:53:26;10.80;82.60
62853;DHT22;49205;44.868;38.140;2022-10-16T01:55:56;10.80;82.70
62853;DHT22;49205;44.868;38.140;2022-10-16T01:58:27;10.80;83.00
62853;DHT22;49205;44.868;38.140;2022-10-16T02:00:59;10.80;83.30
62853;DHT22;49205;44.868;38.140;2022-10-16T02:03:28;10.90;84.10
62853;DHT22;49205;44.868;38.140;2022-10-16T02:05:59;10.90;83.50
62853;DHT22;49205;44.868;38.140;2022-10-16T02:08:29;10.90;83.30
62853;DHT22;49205;44.868;38.140;2022-10-16T02:11:00;10.90;83.30
62853;DHT22;49205;44.868;38.140;2022-10-16T02:13:55;10.90;83.30
62853;DHT22;49205;44.868;38.140;2022-10-16T02:16:20;10.90;83.10
62853;DHT22;49205;44.868;38.140;2022-10-16T02:18:49;10.80;83.20
62853;DHT22;49205;44.868;38.140;2022-10-16T02:21:29;10.80;83.30
62853;DHT22;49205;44.868;38.140;2022-10-16T02:29:17;10.80;83.50
62853;DHT22;49205;44.868;38.140;2022-10-16T02:31:50;10.80;83.70
62853;DHT22;49205;44.868;38.140;2022-10-16T02:34:21;10.80;83.60
62853;DHT22;49205;44.868;38.140;2022-10-16T02:36:52;10.90;83.50
62853;DHT22;49205;44.868;38.140;2022-10-16T02:39:22;10.90;83.30
62853;DHT22;49205;44.868;38.140;2022-10-16T02:41:52;10.90;83.60
62853;DHT22;49205;44.868;38.140;2022-10-16T02:44:21;10.90;83.80
62853;DHT22;49205;44.868;38.140;2022-10-16T02:46:50;10.90;83.70
62853;DHT22;49205;44.868;38.140;2022-10-16T02:49:19;10.90;83.70
62853;DHT22;49205;44.868;38.140;2022-10-16T02:51:48;10.90;83.70
62853;DHT22;49205;44.868;38.140;2022-10-16T02:54:17;10.80;83.40
62853;DHT22;49205;44.868;38.140;2022-10-16T02:56:46;10.80;83.70
62853;DHT22;49205;44.868;38.140;2022-10-16T02:59:16;10.80;83.70
62853;DHT22;49205;44.868;38.140;2022-10-16T03:01:46;10.80;83.90
62853;DHT22;49205;44.868;38.140;2022-10-16T03:04:15;10.80;83.70
62853;DHT22;49205;44.868;38.140;2022-10-16T03:06:44;10.80;83.90
62853;DHT22;49205;44.868;38.140;2022-10-16T03:09:13;10.80;83.70
62853;DHT22;49205;44.868;38.140;2022-10-16T03:11:43;10.70;83.70
62853;DHT22;49205;44.868;38.140;2022-10-16T03:14:11;10.70;83.90
62853;DHT22;49205;44.868;38.140;2022-10-16T03:16:41;10.70;84.20
62853;DHT22;49205;44.868;38.140;2022-10-16T03:19:10;10.70;84.30
62853;DHT22;49205;44.868;38.140;2022-10-16T03:21:39;10.80;84.40
62853;DHT22;49205;44.868;38.140;2022-10-16T03:24:08;10.80;84.40
62853;DHT22;49205;44.868;38.140;2022-10-16T03:26:39;10.80;84.10
62853;DHT22;49205;44.868;38.140;2022-10-16T03:29:08;10.80;83.70
62853;DHT22;49205;44.868;38.140;2022-10-16T03:31:38;10.80;84.00
62853;DHT22;49205;44.868;38.140;2022-10-16T03:34:07;10.80;83.80
62853;DHT22;49205;44.868;38.140;2022-10-16T03:36:36;10.70;83.70
62853;DHT22;49205;44.868;38.140;2022-10-16T03:39:05;10.60;83.50
62853;DHT22;49205;44.868;38.140;2022-10-16T03:41:34;10.60;83.70
62853;DHT22;49205;44.868;38.140;2022-10-16T03:44:03;10.50;84.00
62853;DHT22;49205;44.868;38.140;2022-10-16T03:46:32;10.50;84.20
62853;DHT22;49205;44.868;38.140;2022-10-16T03:49:01;10.50;83.90
62853;DHT22;49205;44.868;38.140;2022-10-16T03:51:30;10.50;83.80
62853;DHT22;49205;44.868;38.140;2022-10-16T03:54:00;10.50;83.80
62853;DHT22;49205;44.868;38.140;2022-10-16T03:56:29;10.40;83.60
62853;DHT22;49205;44.868;38.140;2022-10-16T03:58:58;10.40;83.80
62853;DHT22;49205;44.868;38.140;2022-10-16T04:01:27;10.40;83.80
62853;DHT22;49205;44.868;38.140;2022-10-16T04:03:56;10.40;83.80
62853;DHT22;49205;44.868;38.140;2022-10-16T04:06:25;10.40;83.90
62853;DHT22;49205;44.868;38.140;2022-10-16T04:08:54;10.40;83.80
62853;DHT22;49205;44.868;38.140;2022-10-16T04:11:24;10.40;84.10
62853;DHT22;49205;44.868;38.140;2022-10-16T04:13:53;10.50;84.40
62853;DHT22;49205;44.868;38.140;2022-10-16T04:16:22;10.60;83.70
62853;DHT22;49205;44.868;38.140;2022-10-16T04:18:51;10.60;83.70
62853;DHT22;49205;44.868;38.140;2022-10-16T04:21:20;10.50;83.50
62853;DHT22;49205;44.868;38.140;2022-10-16T04:23:50;10.50;83.50
62853;DHT22;49205;44.868;38.140;2022-10-16T04:26:19;10.40;83.60
62853;DHT22;49205;44.868;38.140;2022-10-16T04:28:48;10.50;83.60
62853;DHT22;49205;44.868;38.140;2022-10-16T04:31:17;10.40;83.30
62853;DHT22;49205;44.868;38.140;2022-10-16T04:33:47;10.40;83.80
62853;DHT22;49205;44.868;38.140;2022-10-16T04:36:16;10.40;83.80
62853;DHT22;49205;44.868;38.140;2022-10-16T04:38:44;10.50;83.70
62853;DHT22;49205;44.868;38.140;2022-10-16T04:41:14;10.50;84.00
62853;DHT22;49205;44.868;38.140;2022-10-16T04:43:43;10.50;84.10
62853;DHT22;49205;44.868;38.140;2022-10-16T04:46:12;10.60;84.20
62853;DHT22;49205;44.868;38.140;2022-10-16T04:48:41;10.60;84.10
62853;DHT22;49205;44.868;38.140;2022-10-16T04:51:10;10.70;84.20
62853;DHT22;49205;44.868;38.140;2022-10-16T04:53:40;10.70;84.20
62853;DHT22;49205;44.868;38.140;2022-10-16T04:56:09;10.80;84.00
62853;DHT22;49205;44.868;38.140;2022-10-16T04:58:38;10.80;83.80
62853;DHT22;49205;44.868;38.140;2022-10-16T05:01:07;10.80;83.80
62853;DHT22;49205;44.868;38.140;2022-10-16T05:03:36;10.80;83.60
62853;DHT22;49205;44.868;38.140;2022-10-16T05:06:06;10.90;83.60
62853;DHT22;49205;44.868;38.140;2022-10-16T05:08:35;10.80;82.90
62853;DHT22;49205;44.868;38.140;2022-10-16T05:11:04;10.80;83.20
62853;DHT22;49205;44.868;38.140;2022-10-16T05:13:34;10.80;82.80
62853;DHT22;49205;44.868;38.140;2022-10-16T05:16:03;10.70;82.80
62853;DHT22;49205;44.868;38.140;2022-10-16T05:18:32;10.70;83.20
62853;DHT22;49205;44.868;38.140;2022-10-16T05:21:01;10.70;83.00
62853;DHT22;49205;44.868;38.140;2022-10-16T05:23:30;10.70;82.80
62853;DHT22;49205;44.868;38.140;2022-10-16T05:25:59;10.70;82.70
62853;DHT22;49205;44.868;38.140;2022-10-16T05:28:29;10.60;82.70
62853;DHT22;49205;44.868;38.140;2022-10-16T05:30:59;10.60;82.60
62853;DHT22;49205;44.868;38.140;2022-10-16T05:33:29;10.60;82.50
62853;DHT22;49205;44.868;38.140;2022-10-16T05:36:03;10.60;82.40
62853;DHT22;49205;44.868;38.140;2022-10-16T05:38:33;10.60;82.50
62853;DHT22;49205;44.868;38.140;2022-10-16T05:41:04;10.60;82.70
62853;DHT22;49205;44.868;38.140;2022-10-16T05:43:33;10.60;82.60
62853;DHT22;49205;44.868;38.140;2022-10-16T05:46:06;10.70;82.80
62853;DHT22;49205;44.868;38.140;2022-10-16T05:48:35;10.70;82.40
62853;DHT22;49205;44.868;38.140;2022-10-16T05:51:06;10.70;82.50
62853;DHT22;49205;44.868;38.140;2022-10-16T05:53:37;10.80;82.50
62853;DHT22;49205;44.868;38.140;2022-10-16T05:56:08;10.80;82.70
62853;DHT22;49205;44.868;38.140;2022-10-16T05:58:38;10.80;82.60
62853;DHT22;49205;44.868;38.140;2022-10-16T06:01:11;10.90;82.60
62853;DHT22;49205;44.868;38.140;2022-10-16T06:03:40;10.90;82.40
62853;DHT22;49205;44.868;38.140;2022-10-16T06:06:18;10.90;82.50
62853;DHT22;49205;44.868;38.140;2022-10-16T06:08:44;11.00;82.50
62853;DHT22;49205;44.868;38.140;2022-10-16T06:11:22;11.00;82.40
62853;DHT22;49205;44.868;38.140;2022-10-16T06:13:53;11.10;82.70
62853;DHT22;49205;44.868;38.140;2022-10-16T06:16:24;11.20;82.70
62853;DHT22;49205;44.868;38.140;2022-10-16T06:18:54;11.20;82.50
62853;DHT22;49205;44.868;38.140;2022-10-16T06:21:25;11.30;82.50
62853;DHT22;49205;44.868;38.140;2022-10-16T06:23:54;11.30;82.10
62853;DHT22;49205;44.868;38.140;2022-10-16T06:26:25;11.40;82.20
62853;DHT22;49205;44.868;38.140;2022-10-16T06:28:56;11.40;82.20
62853;DHT22;49205;44.868;38.140;2022-10-16T06:31:27;11.40;82.10
62853;DHT22;49205;44.868;38.140;2022-10-16T06:33:58;11.50;82.20
62853;DHT22;49205;44.868;38.140;2022-10-16T06:36:27;11.50;82.30
62853;DHT22;49205;44.868;38.140;2022-10-16T06:38:56;11.50;82.10
62853;DHT22;49205;44.868;38.140;2022-10-16T06:41:26;11.60;82.10
62853;DHT22;49205;44.868;38.140;2022-10-16T06:43:55;11.60;82.10
62853;DHT22;49205;44.868;38.140;2022-10-16T06:46:25;11.60;81.90
62853;DHT22;49205;44.868;38.140;2022-10-16T06:48:54;11.60;81.90
62853;DHT22;49205;44.868;38.140;2022-10-16T06:51:25;11.60;82.20
62853;DHT22;49205;44.868;38.140;2022-10-16T06:53:55;11.70;82.20
62853;DHT22;49205;44.868;38.140;2022-10-16T06:56:27;11.70;82.10
62853;DHT22;49205;44.868;38.140;2022-10-16T06:58:58;11.80;82.10
62853;DHT22;49205;44.868;38.140;2022-10-16T07:01:28;11.90;82.00
62853;DHT22;49205;44.868;38.140;2022-10-16T07:03:57;11.90;81.90
62853;DHT22;49205;44.868;38.140;2022-10-16T07:06:27;12.00;82.00
62853;DHT22;49205;44.868;38.140;2022-10-16T07:08:57;12.00;82.00
62853;DHT22;49205;44.868;38.140;2022-10-16T07:11:26;12.00;82.10
62853;DHT22;49205;44.868;38.140;2022-10-16T07:13:55;12.00;81.90
62853;DHT22;49205;44.868;38.140;2022-10-16T07:16:26;12.10;82.20
62853;DHT22;49205;44.868;38.140;2022-10-16T07:18:56;12.10;82.30
62853;DHT22;49205;44.868;38.140;2022-10-16T07:21:31;12.20;82.10
62853;DHT22;49205;44.868;38.140;2022-10-16T07:24:02;12.20;82.20
62853;DHT22;49205;44.868;38.140;2022-10-16T07:26:34;12.30;82.20
62853;DHT22;49205;44.868;38.140;2022-10-16T07:29:03;12.30;82.10
62853;DHT22;49205;44.868;38.140;2022-10-16T07:31:32;12.40;82.10
62853;DHT22;49205;44.868;38.140;2022-10-16T07:34:02;12.40;82.10
62853;DHT22;49205;44.868;38.140;2022-10-16T07:36:31;12.40;82.10
62853;DHT22;49205;44.868;38.140;2022-10-16T07:39:00;12.50;82.40
62853;DHT22;49205;44.868;38.140;2022-10-16T07:41:30;12.50;82.30
62853;DHT22;49205;44.868;38.140;2022-10-16T07:44:00;12.60;82.40
62853;DHT22;49205;44.868;38.140;2022-10-16T07:46:30;12.60;82.40
62853;DHT22;49205;44.868;38.140;2022-10-16T07:49:01;12.70;82.30
62853;DHT22;49205;44.868;38.140;2022-10-16T07:51:30;12.70;82.30
62853;DHT22;49205;44.868;38.140;2022-10-16T07:54:00;12.70;82.30
62853;DHT22;49205;44.868;38.140;2022-10-16T07:56:31;12.80;82.30
62853;DHT22;49205;44.868;38.140;2022-10-16T07:59:00;12.80;82.30
62853;DHT22;49205;44.868;38.140;2022-10-16T08:01:29;12.80;82.40
62853;DHT22;49205;44.868;38.140;2022-10-16T08:03:59;12.90;82.50
62853;DHT22;49205;44.868;38.140;2022-10-16T08:06:28;12.90;82.50
62853;DHT22;49205;44.868;38.140;2022-10-16T08:08:57;12.90;82.60
62853;DHT22;49205;44.868;38.140;2022-10-16T08:11:27;13.00;82.60
62853;DHT22;49205;44.868;38.140;2022-10-16T08:13:56;13.00;82.50
62853;DHT22;49205;44.868;38.140;2022-10-16T08:16:26;13.10;82.60
62853;DHT22;49205;44.868;38.140;2022-10-16T08:18:55;13.10;82.70
62853;DHT22;49205;44.868;38.140;2022-10-16T08:21:24;13.20;82.60
62853;DHT22;49205;44.868;38.140;2022-10-16T08:23:54;13.30;82.50
62853;DHT22;49205;44.868;38.140;2022-10-16T08:26:23;13.30;82.50
62853;DHT22;49205;44.868;38.140;2022-10-16T08:28:52;13.30;82.20
62853;DHT22;49205;44.868;38.140;2022-10-16T08:31:22;13.40;82.30
62853;DHT22;49205;44.868;38.140;2022-10-16T08:33:51;13.40;82.30
62853;DHT22;49205;44.868;38.140;2022-10-16T08:36:20;13.50;82.30
62853;DHT22;49205;44.868;38.140;2022-10-16T08:38:49;13.50;82.30
62853;DHT22;49205;44.868;38.140;2022-10-16T08:41:36;13.60;82.40
62853;DHT22;49205;44.868;38.140;2022-10-16T08:50:10;13.90;82.30
62853;DHT22;49205;44.868;38.140;2022-10-16T08:52:41;13.90;82.00
62853;DHT22;49205;44.868;38.140;2022-10-16T08:55:33;14.00;81.80
62853;DHT22;49205;44.868;38.140;2022-10-16T08:57:45;14.10;82.00
62853;DHT22;49205;44.868;38.140;2022-10-16T09:00:15;14.20;82.10
62853;DHT22;49205;44.868;38.140;2022-10-16T09:02:52;14.20;81.90
62853;DHT22;49205;44.868;38.140;2022-10-16T09:05:51;14.30;82.10
62853;DHT22;49205;44.868;38.140;2022-10-16T09:08:35;14.40;82.00
62853;DHT22;49205;44.868;38.140;2022-10-16T09:11:11;14.50;81.90
62853;DHT22;49205;44.868;38.140;2022-10-16T09:16:51;14.60;81.70
62853;DHT22;49205;44.868;38.140;2022-10-16T09:21:43;14.70;81.40
62853;DHT22;49205;44.868;38.140;2022-10-16T09:24:15;14.70;81.20
62853;DHT22;49205;44.868;38.140;2022-10-16T09:26:45;14.80;81.50
62853;DHT22;49205;44.868;38.140;2022-10-16T09:29:16;14.80;81.50
62853;DHT22;49205;44.868;38.140;2022-10-16T09:31:47;14.90;81.80
62853;DHT22;49205;44.868;38.140;2022-10-16T09:34:24;15.00;81.70
62853;DHT22;49205;44.868;38.140;2022-10-16T09:36:52;15.10;81.70
62853;DHT22;49205;44.868;38.140;2022-10-16T09:39:21;15.20;81.50
62853;DHT22;49205;44.868;38.140;2022-10-16T09:41:50;15.30;81.40
62853;DHT22;49205;44.868;38.140;2022-10-16T09:44:27;15.30;81.30
62853;DHT22;49205;44.868;38.140;2022-10-16T09:47:12;15.40;81.20
62853;DHT22;49205;44.868;38.140;2022-10-16T09:49:59;15.50;81.20
62853;DHT22;49205;44.868;38.140;2022-10-16T09:52:30;15.50;81.40
62853;DHT22;49205;44.868;38.140;2022-10-16T09:55:14;15.60;81.40
62853;DHT22;49205;44.868;38.140;2022-10-16T09:57:54;15.70;81.20
62853;DHT22;49205;44.868;38.140;2022-10-16T10:00:24;15.80;81.40
62853;DHT22;49205;44.868;38.140;2022-10-16T10:02:55;15.90;81.20
62853;DHT22;49205;44.868;38.140;2022-10-16T10:05:26;16.00;81.10
62853;DHT22;49205;44.868;38.140;2022-10-16T10:07:58;16.10;80.90
62853;DHT22;49205;44.868;38.140;2022-10-16T10:10:29;16.20;81.10
62853;DHT22;49205;44.868;38.140;2022-10-16T10:12:59;16.30;80.80
62853;DHT22;49205;44.868;38.140;2022-10-16T10:15:32;16.40;80.70
62853;DHT22;49205;44.868;38.140;2022-10-16T10:17:59;16.50;80.60
62853;DHT22;49205;44.868;38.140;2022-10-16T10:20:32;16.50;80.80
62853;DHT22;49205;44.868;38.140;2022-10-16T10:23:22;16.50;80.60
62853;DHT22;49205;44.868;38.140;2022-10-16T10:25:59;16.50;80.60
62853;DHT22;49205;44.868;38.140;2022-10-16T10:31:17;16.50;80.80
62853;DHT22;49205;44.868;38.140;2022-10-16T10:39:23;16.70;81.10
62853;DHT22;49205;44.868;38.140;2022-10-16T10:44:57;17.00;80.50
62853;DHT22;49205;44.868;38.140;2022-10-16T10:47:39;17.00;80.40
62853;DHT22;49205;44.868;38.140;2022-10-16T10:50:20;17.10;80.50
62853;DHT22;49205;44.868;38.140;2022-10-16T10:56:12;17.10;80.10
62853;DHT22;49205;44.868;38.140;2022-10-16T11:06:53;17.20;80.00
62853;DHT22;49205;44.868;38.140;2022-10-16T11:09:28;17.20;80.20
62853;DHT22;49205;44.868;38.140;2022-10-16T11:14:47;17.20;80.40
62853;DHT22;49205;44.868;38.140;2022-10-16T11:17:22;17.20;80.20
62853;DHT22;49205;44.868;38.140;2022-10-16T11:19:54;17.20;80.10
62853;DHT22;49205;44.868;38.140;2022-10-16T11:22:39;17.20;80.10
62853;DHT22;49205;44.868;38.140;2022-10-16T11:25:26;17.20;80.10
62853;DHT22;49205;44.868;38.140;2022-10-16T11:28:18;17.30;80.20
62853;DHT22;49205;44.868;38.140;2022-10-16T11:31:16;17.30;80.10
62853;DHT22;49205;44.868;38.140;2022-10-16T11:33:54;17.20;80.20
62853;DHT22;49205;44.868;38.140;2022-10-16T11:36:34;17.20;80.10
62853;DHT22;49205;44.868;38.140;2022-10-16T11:39:08;17.20;80.00
62853;DHT22;49205;44.868;38.140;2022-10-16T11:41:42;17.20;80.20
62853;DHT22;49205;44.868;38.140;2022-10-16T11:49:36;17.20;80.30
62853;DHT22;49205;44.868;38.140;2022-10-16T11:55:34;17.20;80.40
62853;DHT22;49205;44.868;38.140;2022-10-16T11:58:02;17.20;81.20
62853;DHT22;49205;44.868;38.140;2022-10-16T12:00:58;17.20;80.60
62853;DHT22;49205;44.868;38.140;2022-10-16T12:03:35;17.20;80.60
62853;DHT22;49205;44.868;38.140;2022-10-16T12:08:47;17.20;80.60
62853;DHT22;49205;44.868;38.140;2022-10-16T12:11:31;17.20;80.60
62853;DHT22;49205;44.868;38.140;2022-10-16T12:19:42;17.30;80.40
62853;DHT22;49205;44.868;38.140;2022-10-16T12:22:16;17.30;80.50
62853;DHT22;49205;44.868;38.140;2022-10-16T12:24:46;17.30;80.40
62853;DHT22;49205;44.868;38.140;2022-10-16T12:27:30;17.30;80.40
62853;DHT22;49205;44.868;38.140;2022-10-16T12:30:02;17.30;80.10
62853;DHT22;49205;44.868;38.140;2022-10-16T12:32:37;17.30;80.20
62853;DHT22;49205;44.868;38.140;2022-10-16T12:35:21;17.30;80.30
62853;DHT22;49205;44.868;38.140;2022-10-16T12:37:45;17.30;80.30
62853;DHT22;49205;44.868;38.140;2022-10-16T12:42:52;17.30;80.10
62853;DHT22;49205;44.868;38.140;2022-10-16T12:45:27;17.30;80.20
62853;DHT22;49205;44.868;38.140;2022-10-16T12:47:56;17.30;80.40
62853;DHT22;49205;44.868;38.140;2022-10-16T12:50:33;17.30;80.50
62853;DHT22;49205;44.868;38.140;2022-10-16T12:53:17;17.30;80.50
62853;DHT22;49205;44.868;38.140;2022-10-16T12:55:42;17.30;80.20
62853;DHT22;49205;44.868;38.140;2022-10-16T12:58:17;17.30;80.20
62853;DHT22;49205;44.868;38.140;2022-10-16T13:00:48;17.30;80.10
62853;DHT22;49205;44.868;38.140;2022-10-16T13:26:26;17.10;79.80
62853;DHT22;49205;44.868;38.140;2022-10-16T13:28:49;17.10;79.90
62853;DHT22;49205;44.868;38.140;2022-10-16T13:31:23;17.10;80.00
62853;DHT22;49205;44.868;38.140;2022-10-16T13:33:55;17.10;79.90
62853;DHT22;49205;44.868;38.140;2022-10-16T13:36:34;17.00;79.80
62853;DHT22;49205;44.868;38.140;2022-10-16T13:39:06;17.10;80.00
62853;DHT22;49205;44.868;38.140;2022-10-16T13:41:30;17.10;80.10
62853;DHT22;49205;44.868;38.140;2022-10-16T13:44:00;17.00;80.00
62853;DHT22;49205;44.868;38.140;2022-10-16T13:46:29;17.00;80.20
62853;DHT22;49205;44.868;38.140;2022-10-16T13:49:05;17.00;80.20
62853;DHT22;49205;44.868;38.140;2022-10-16T13:51:31;17.00;80.30
62853;DHT22;49205;44.868;38.140;2022-10-16T13:54:01;17.00;80.40
62853;DHT22;49205;44.868;38.140;2022-10-16T13:56:32;16.90;80.30
62853;DHT22;49205;44.868;38.140;2022-10-16T13:59:06;16.90;80.40
62853;DHT22;49205;44.868;38.140;2022-10-16T14:01:42;16.90;80.40
62853;DHT22;49205;44.868;38.140;2022-10-16T14:04:13;16.90;80.30
62853;DHT22;49205;44.868;38.140;2022-10-16T14:06:45;16.90;80.40
62853;DHT22;49205;44.868;38.140;2022-10-16T14:09:23;16.90;80.40
62853;DHT22;49205;44.868;38.140;2022-10-16T14:11:59;16.80;80.40
62853;DHT22;49205;44.868;38.140;2022-10-16T14:14:25;16.80;80.50
62853;DHT22;49205;44.868;38.140;2022-10-16T14:16:56;16.80;80.50
62853;DHT22;49205;44.868;38.140;2022-10-16T14:19:30;16.80;80.70
62853;DHT22;49205;44.868;38.140;2022-10-16T14:22:00;16.80;80.80
62853;DHT22;49205;44.868;38.140;2022-10-16T14:24:32;16.70;80.90
62853;DHT22;49205;44.868;38.140;2022-10-16T14:27:28;16.70;81.00
62853;DHT22;49205;44.868;38.140;2022-10-16T14:29:33;16.60;81.10
62853;DHT22;49205;44.868;38.140;2022-10-16T14:32:05;16.60;81.30
62853;DHT22;49205;44.868;38.140;2022-10-16T14:34:37;16.50;81.30
62853;DHT22;49205;44.868;38.140;2022-10-16T14:37:22;16.50;81.60
62853;DHT22;49205;44.868;38.140;2022-10-16T14:39:50;16.40;81.50
62853;DHT22;49205;44.868;38.140;2022-10-16T14:42:22;16.40;81.80
62853;DHT22;49205;44.868;38.140;2022-10-16T14:44:55;16.40;81.80
62853;DHT22;49205;44.868;38.140;2022-10-16T14:47:26;16.40;81.90
62853;DHT22;49205;44.868;38.140;2022-10-16T14:49:55;16.30;81.90
62853;DHT22;49205;44.868;38.140;2022-10-16T14:52:26;16.30;82.00
62853;DHT22;49205;44.868;38.140;2022-10-16T14:54:55;16.30;82.10
62853;DHT22;49205;44.868;38.140;2022-10-16T14:57:26;16.20;82.10
62853;DHT22;49205;44.868;38.140;2022-10-16T14:59:56;16.20;82.20
62853;DHT22;49205;44.868;38.140;2022-10-16T15:02:35;16.20;82.10
62853;DHT22;49205;44.868;38.140;2022-10-16T15:05:21;16.10;82.30
62853;DHT22;49205;44.868;38.140;2022-10-16T15:07:52;16.10;82.40
62853;DHT22;49205;44.868;38.140;2022-10-16T15:10:23;16.10;82.60
62853;DHT22;49205;44.868;38.140;2022-10-16T15:12:53;16.10;82.60
62853;DHT22;49205;44.868;38.140;2022-10-16T15:17:55;16.00;82.80
62853;DHT22;49205;44.868;38.140;2022-10-16T15:20:29;15.90;83.00
62853;DHT22;49205;44.868;38.140;2022-10-16T15:23:02;15.90;82.90
62853;DHT22;49205;44.868;38.140;2022-10-16T15:28:04;15.90;83.30
62853;DHT22;49205;44.868;38.140;2022-10-16T15:30:35;15.80;83.30
62853;DHT22;49205;44.868;38.140;2022-10-16T15:33:05;15.80;83.50
62853;DHT22;49205;44.868;38.140;2022-10-16T15:35:35;15.80;83.50
62853;DHT22;49205;44.868;38.140;2022-10-16T15:38:04;15.80;83.60
62853;DHT22;49205;44.868;38.140;2022-10-16T15:40:34;15.70;83.80
62853;DHT22;49205;44.868;38.140;2022-10-16T15:43:03;15.70;83.80
62853;DHT22;49205;44.868;38.140;2022-10-16T15:45:32;15.70;83.90
62853;DHT22;49205;44.868;38.140;2022-10-16T15:48:02;15.60;84.10
62853;DHT22;49205;44.868;38.140;2022-10-16T15:50:32;15.60;84.10
62853;DHT22;49205;44.868;38.140;2022-10-16T15:53:01;15.50;84.10
62853;DHT22;49205;44.868;38.140;2022-10-16T15:55:30;15.50;84.10
62853;DHT22;49205;44.868;38.140;2022-10-16T15:58:00;15.50;84.20
62853;DHT22;49205;44.868;38.140;2022-10-16T16:00:29;15.50;84.10
62853;DHT22;49205;44.868;38.140;2022-10-16T16:02:57;15.40;84.10
62853;DHT22;49205;44.868;38.140;2022-10-16T16:05:27;15.40;84.10
62853;DHT22;49205;44.868;38.140;2022-10-16T16:07:57;15.40;83.90
62853;DHT22;49205;44.868;38.140;2022-10-16T16:10:26;15.30;83.80
62853;DHT22;49205;44.868;38.140;2022-10-16T16:12:55;15.40;83.90
62853;DHT22;49205;44.868;38.140;2022-10-16T16:15:26;15.30;83.80
62853;DHT22;49205;44.868;38.140;2022-10-16T16:17:55;15.30;83.30
62853;DHT22;49205;44.868;38.140;2022-10-16T16:20:26;15.30;83.70
62853;DHT22;49205;44.868;38.140;2022-10-16T16:22:55;15.20;83.60
62853;DHT22;49205;44.868;38.140;2022-10-16T16:25:25;15.20;83.60
62853;DHT22;49205;44.868;38.140;2022-10-16T16:27:54;15.20;83.60
62853;DHT22;49205;44.868;38.140;2022-10-16T16:30:23;15.20;83.60
62853;DHT22;49205;44.868;38.140;2022-10-16T16:32:53;15.20;83.60
62853;DHT22;49205;44.868;38.140;2022-10-16T16:35:22;15.10;83.60
62853;DHT22;49205;44.868;38.140;2022-10-16T16:37:51;15.10;83.60
62853;DHT22;49205;44.868;38.140;2022-10-16T16:40:22;15.10;83.60
62853;DHT22;49205;44.868;38.140;2022-10-16T16:42:51;15.10;83.70
62853;DHT22;49205;44.868;38.140;2022-10-16T16:45:20;15.10;83.70
62853;DHT22;49205;44.868;38.140;2022-10-16T16:47:51;15.00;83.70
62853;DHT22;49205;44.868;38.140;2022-10-16T16:50:20;15.00;83.80
62853;DHT22;49205;44.868;38.140;2022-10-16T16:52:49;15.00;83.80
62853;DHT22;49205;44.868;38.140;2022-10-16T16:55:19;14.90;83.80
62853;DHT22;49205;44.868;38.140;2022-10-16T16:57:48;15.00;83.80
62853;DHT22;49205;44.868;38.140;2022-10-16T17:00:17;15.00;83.90
62853;DHT22;49205;44.868;38.140;2022-10-16T17:02:49;14.90;83.80
62853;DHT22;49205;44.868;38.140;2022-10-16T17:05:19;14.90;83.80
62853;DHT22;49205;44.868;38.140;2022-10-16T17:07:48;14.90;83.90
62853;DHT22;49205;44.868;38.140;2022-10-16T17:10:18;14.90;83.90
62853;DHT22;49205;44.868;38.140;2022-10-16T17:12:47;14.90;83.90
62853;DHT22;49205;44.868;38.140;2022-10-16T17:15:16;14.90;84.00